Time;durP1;ratioP1;P1;durP2;ratioP2;P2;SDS_P1;SDS_P2;PMS_P1;PMS_P2;Temp;Humidity;BMP_temperature;BMP_pressure;BME280_temperature;BME280_humidity;BME280_pressure;Samples;Min_cycle;Max_cycle;Signal;HPM_P1;HPM_P2
2023/03/30 00:02:29;;;;;;;19.80;8.20;;;11.50;99.90;;;;;;5096334;28;20502;-74
2023/03/30 00:04:55;;;;;;;21.35;9.57;;;11.50;99.90;;;;;;5114720;28;20043;-73
2023/03/30 00:07:21;;;;;;;29.63;15.20;;;11.60;99.90;;;;;;5114765;28;20040;-75
2023/03/30 00:09:47;;;;;;;26.80;12.23;;;11.60;99.90;;;;;;5079272;28;20390;-74
2023/03/30 00:12:19;;;;;;;26.08;14.10;;;11.60;99.90;;;;;;5096374;28;20054;-73
2023/03/30 00:14:45;;;;;;;26.80;13.52;;;11.60;99.90;;;;;;5114883;28;20373;-74
2023/03/30 00:17:11;;;;;;;24.60;13.05;;;11.60;99.90;;;;;;5113896;28;20092;-75
2023/03/30 00:19:37;;;;;;;21.88;11.85;;;11.60;99.90;;;;;;5113903;28;20130;-74
2023/03/30 00:22:08;;;;;;;23.17;13.25;;;11.60;99.90;;;;;;5096151;28;20040;-74
2023/03/30 00:24:36;;;;;;;29.38;14.27;;;11.60;99.90;;;;;;5114152;28;20047;-74
2023/03/30 00:27:03;;;;;;;24.83;13.52;;;11.50;99.90;;;;;;5096202;28;20040;-73
2023/03/30 00:29:28;;;;;;;23.90;12.82;;;11.50;99.90;;;;;;5114406;28;20503;-73
2023/03/30 00:31:54;;;;;;;27.30;11.50;;;11.50;99.90;;;;;;5079870;28;20043;-74
2023/03/30 00:34:20;;;;;;;21.27;9.63;;;11.40;99.90;;;;;;5113962;28;20048;-77
2023/03/30 00:36:47;;;;;;;20.35;8.63;;;11.40;99.90;;;;;;5063195;28;20051;-75
2023/03/30 00:39:17;;;;;;;23.95;10.45;;;11.40;99.90;;;;;;5113769;28;20036;-73
2023/03/30 00:41:44;;;;;;;26.48;11.88;;;11.30;99.90;;;;;;5113974;28;20079;-74
2023/03/30 00:44:48;;;;;;;23.55;11.70;;;11.30;99.90;;;;;;5095724;28;20147;-76
2023/03/30 00:47:15;;;;;;;22.13;10.05;;;11.30;99.90;;;;;;5113819;28;20051;-74
2023/03/30 00:49:42;;;;;;;16.60;8.05;;;11.30;99.90;;;;;;5096075;28;20087;-73
2023/03/30 00:52:09;;;;;;;22.17;11.32;;;11.30;99.90;;;;;;5113675;28;20151;-73
2023/03/30 00:54:37;;;;;;;28.08;9.95;;;11.40;99.90;;;;;;5116849;28;20055;-73
2023/03/30 00:57:02;;;;;;;;;;;11.40;99.90;;;;;;5118406;28;20093;-73
2023/03/30 00:59:28;;;;;;;25.67;11.13;;;11.40;99.90;;;;;;5117661;28;20305;-73
2023/03/30 01:01:55;;;;;;;29.80;12.05;;;11.40;99.90;;;;;;5117682;28;20093;-75
2023/03/30 01:04:20;;;;;;;21.30;11.23;;;11.40;99.90;;;;;;5099410;28;20066;-75
2023/03/30 01:06:48;;;;;;;24.48;11.20;;;11.40;99.90;;;;;;5116408;28;20769;-73
2023/03/30 01:09:15;;;;;;;27.70;12.27;;;11.50;99.90;;;;;;5100193;28;20423;-73
2023/03/30 01:11:42;;;;;;;29.42;13.95;;;11.50;99.90;;;;;;5117337;28;20437;-74
2023/03/30 01:14:09;;;;;;;;;;;11.50;99.90;;;;;;5083135;28;20051;-75
2023/03/30 01:16:53;;;;;;;23.55;8.90;;;11.50;99.90;;;;;;5099520;28;19927;-75
2023/03/30 01:20:11;;;;;;;17.25;7.95;;;11.60;99.90;;;;;;5117237;28;20039;-75
2023/03/30 01:23:03;;;;;;;15.13;7.03;;;11.60;99.90;;;;;;5099472;28;20048;-74
2023/03/30 01:25:44;;;;;;;16.85;5.75;;;11.60;99.90;;;;;;5099360;28;20054;-74
2023/03/30 01:28:29;;;;;;;11.75;5.30;;;11.60;99.90;;;;;;5118764;28;20414;-74
2023/03/30 01:31:04;;;;;;;14.25;5.25;;;11.50;99.90;;;;;;5117781;28;20040;-74
2023/03/30 01:33:33;;;;;;;13.18;5.22;;;11.60;99.90;;;;;;5117103;28;20115;-74
2023/03/30 01:36:35;;;;;;;10.27;4.95;;;11.60;99.90;;;;;;5117223;28;20185;-73
2023/03/30 01:39:16;;;;;;;15.25;4.85;;;11.50;99.90;;;;;;5117219;28;20047;-75
2023/03/30 01:41:52;;;;;;;12.43;5.47;;;11.50;99.90;;;;;;5100059;28;20043;-73
2023/03/30 01:44:21;;;;;;;13.68;5.72;;;11.50;99.90;;;;;;5117489;28;20060;-74
2023/03/30 01:46:51;;;;;;;13.70;5.10;;;11.60;99.90;;;;;;5098818;28;20134;-74
2023/03/30 01:49:28;;;;;;;14.70;5.20;;;11.60;99.90;;;;;;5099445;28;20047;-74
2023/03/30 01:52:05;;;;;;;12.57;5.88;;;11.60;99.90;;;;;;5116932;28;20048;-74
2023/03/30 01:54:34;;;;;;;;;;;11.60;99.90;;;;;;5082172;28;20139;-73
2023/03/30 01:57:13;;;;;;;11.77;4.68;;;11.60;99.90;;;;;;5081670;28;20056;-74
2023/03/30 01:59:50;;;;;;;12.23;4.43;;;11.60;99.90;;;;;;5116634;28;20090;-73
2023/03/30 02:02:17;;;;;;;;;;;11.60;99.90;;;;;;5099899;28;20120;-74
2023/03/30 02:04:44;;;;;;;;;;;11.60;99.90;;;;;;5097467;28;19920;-74
2023/03/30 02:07:16;;;;;;;18.00;7.93;;;11.60;99.90;;;;;;5099014;28;19926;-74
2023/03/30 02:09:43;;;;;;;16.95;6.45;;;11.60;99.90;;;;;;5116369;28;20149;-73
2023/03/30 02:12:09;;;;;;;;;;;11.60;99.90;;;;;;5099010;28;20044;-73
2023/03/30 02:14:38;;;;;;;10.45;4.22;;;11.70;99.90;;;;;;5098326;28;19927;-73
2023/03/30 02:17:16;;;;;;;11.77;4.82;;;11.70;99.90;;;;;;5116226;28;20055;-74
2023/03/30 02:19:45;;;;;;;8.98;3.97;;;11.70;99.90;;;;;;5098133;28;20083;-74
2023/03/30 02:22:12;;;;;;;11.05;4.18;;;11.80;99.90;;;;;;5115926;28;20065;-73
2023/03/30 02:24:39;;;;;;;13.43;4.15;;;11.80;99.90;;;;;;5115895;28;20043;-74
2023/03/30 02:27:05;;;;;;;13.73;3.80;;;11.90;99.90;;;;;;5097902;28;20126;-73
2023/03/30 02:29:33;;;;;;;9.40;3.92;;;11.90;99.90;;;;;;5098579;28;20110;-76
2023/03/30 02:32:00;;;;;;;11.25;3.45;;;12.00;99.90;;;;;;5116211;28;20479;-73
2023/03/30 02:34:42;;;;;;;11.13;3.00;;;12.00;99.90;;;;;;5116880;28;20055;-75
2023/03/30 02:37:29;;;;;;;11.70;3.42;;;12.10;99.90;;;;;;5116581;28;20281;-74
2023/03/30 02:40:07;;;;;;;12.02;3.10;;;12.20;99.90;;;;;;5097999;28;20138;-75
2023/03/30 02:42:54;;;;;;;9.23;3.30;;;12.20;99.90;;;;;;5115733;28;20138;-73
2023/03/30 02:45:29;;;;;;;9.30;2.92;;;12.30;99.90;;;;;;5115282;28;20519;-74
2023/03/30 02:48:13;;;;;;;11.40;3.10;;;12.30;99.90;;;;;;5097550;28;20044;-74
2023/03/30 02:51:07;;;;;;;10.30;2.70;;;12.40;99.90;;;;;;5098176;28;20046;-72
2023/03/30 02:53:45;;;;;;;8.05;2.80;;;12.30;99.90;;;;;;5076931;28;20059;-73
2023/03/30 02:56:18;;;;;;;9.73;2.63;;;12.30;99.90;;;;;;5097453;28;20432;-74
2023/03/30 02:59:00;;;;;;;11.07;3.15;;;12.30;99.90;;;;;;5115421;28;20130;-73
2023/03/30 03:01:46;;;;;;;9.50;2.42;;;12.30;99.90;;;;;;5116219;28;20364;-74
2023/03/30 03:04:14;;;;;;;6.55;2.60;;;12.20;99.90;;;;;;5115359;28;20050;-73
2023/03/30 03:06:41;;;;;;;11.40;2.53;;;12.10;99.90;;;;;;5097181;28;20138;-73
2023/03/30 03:09:08;;;;;;;7.30;2.90;;;12.00;99.90;;;;;;5096498;28;20559;-74
2023/03/30 03:11:34;;;;;;;5.75;2.33;;;12.00;99.90;;;;;;5079959;28;20043;-75
2023/03/30 03:14:00;;;;;;;7.03;2.85;;;11.90;99.90;;;;;;5096696;28;20130;-73
2023/03/30 03:16:25;;;;;;;10.23;3.00;;;12.00;99.90;;;;;;5114566;28;20085;-74
2023/03/30 03:18:52;;;;;;;11.30;2.88;;;12.10;99.90;;;;;;5114962;28;20388;-73
2023/03/30 03:21:18;;;;;;;10.40;3.03;;;12.10;99.90;;;;;;5115835;28;20100;-73
2023/03/30 03:23:47;;;;;;;10.20;3.08;;;12.00;99.90;;;;;;5080635;28;20413;-74
2023/03/30 03:26:13;;;;;;;9.27;3.15;;;12.20;99.90;;;;;;5114843;28;20059;-73
2023/03/30 03:28:39;;;;;;;9.85;2.80;;;12.30;99.90;;;;;;5080611;28;20058;-75
2023/03/30 03:31:05;;;;;;;9.93;2.85;;;12.30;99.90;;;;;;5097624;28;20044;-74
2023/03/30 03:33:31;;;;;;;12.93;2.00;;;12.50;99.90;;;;;;5114946;28;20403;-74
2023/03/30 03:35:59;;;;;;;6.50;1.98;;;12.50;99.90;;;;;;5115121;28;20062;-74
2023/03/30 03:38:28;;;;;;;14.02;2.55;;;12.60;99.90;;;;;;5114944;28;20039;-73
2023/03/30 03:40:56;;;;;;;9.85;2.10;;;12.60;99.90;;;;;;5115099;28;20043;-73
2023/03/30 03:43:23;;;;;;;10.30;2.10;;;12.60;99.90;;;;;;5114467;28;20079;-74
2023/03/30 03:45:49;;;;;;;6.57;1.77;;;12.60;99.90;;;;;;5096076;28;20544;-74
2023/03/30 03:48:17;;;;;;;11.90;2.08;;;12.60;99.90;;;;;;5114448;28;20043;-75
2023/03/30 03:50:43;;;;;;;8.98;2.03;;;12.60;99.90;;;;;;5096150;28;20445;-74
2023/03/30 03:53:11;;;;;;;10.30;2.00;;;12.50;99.90;;;;;;5096360;28;20494;-74
2023/03/30 03:55:37;;;;;;;6.75;2.25;;;12.60;99.90;;;;;;5096765;28;20044;-74
2023/03/30 03:58:03;;;;;;;10.48;2.53;;;12.60;99.90;;;;;;5096434;28;20365;-73
2023/03/30 04:00:30;;;;;;;7.45;2.22;;;12.50;99.90;;;;;;5096286;28;20043;-73
2023/03/30 04:02:56;;;;;;;8.17;2.30;;;12.50;99.90;;;;;;5096335;28;20053;-75
2023/03/30 04:05:22;;;;;;;10.70;2.90;;;12.50;99.90;;;;;;5114159;28;20048;-74
2023/03/30 04:07:48;;;;;;;7.90;3.08;;;12.60;99.90;;;;;;5114129;28;20051;-72
2023/03/30 04:10:14;;;;;;;10.55;2.67;;;12.60;99.90;;;;;;5113950;28;20044;-74
2023/03/30 04:12:40;;;;;;;7.38;2.88;;;12.60;99.90;;;;;;5095835;28;20471;-75
2023/03/30 04:15:07;;;;;;;11.02;2.92;;;12.50;99.90;;;;;;5113928;28;20056;-74
2023/03/30 04:17:34;;;;;;;8.27;3.10;;;12.50;99.90;;;;;;5095617;28;20146;-75
2023/03/30 04:20:04;;;;;;;10.43;3.25;;;12.50;99.90;;;;;;5114000;28;20052;-74
2023/03/30 04:22:40;;;;;;;9.40;2.95;;;12.40;99.90;;;;;;5096536;28;20043;-74
2023/03/30 04:25:10;;;;;;;8.25;3.00;;;12.40;99.90;;;;;;5096265;28;20039;-75
2023/03/30 04:27:41;;;;;;;8.95;2.83;;;12.40;99.90;;;;;;5095196;28;20394;-74
2023/03/30 04:30:09;;;;;;;9.45;3.03;;;12.30;99.90;;;;;;5079274;28;20449;-75
2023/03/30 04:32:37;;;;;;;9.00;2.88;;;12.30;99.90;;;;;;5114524;28;20120;-74
2023/03/30 04:35:07;;;;;;;7.97;3.10;;;12.20;99.90;;;;;;5114277;28;20106;-76
2023/03/30 04:37:34;;;;;;;10.80;3.40;;;12.20;99.90;;;;;;5113488;28;20491;-73
2023/03/30 04:40:01;;;;;;;11.20;2.85;;;12.20;99.90;;;;;;5095724;28;20040;-74
2023/03/30 04:42:33;;;;;;;7.97;2.65;;;12.30;99.90;;;;;;5112761;28;20082;-76
2023/03/30 04:45:05;;;;;;;8.35;2.70;;;12.20;99.90;;;;;;5096081;28;20040;-75
2023/03/30 04:47:32;;;;;;;10.90;3.00;;;12.20;99.90;;;;;;5114470;28;20127;-75
2023/03/30 04:49:58;;;;;;;11.45;2.72;;;12.30;99.90;;;;;;5095463;28;20048;-73
2023/03/30 04:52:24;;;;;;;9.70;2.90;;;12.20;99.90;;;;;;5095205;28;20051;-75
2023/03/30 04:54:49;;;;;;;8.65;2.50;;;12.30;99.90;;;;;;5095356;28;20380;-74
2023/03/30 04:57:16;;;;;;;8.75;2.83;;;12.30;99.90;;;;;;5113549;28;20475;-74
2023/03/30 04:59:43;;;;;;;9.90;3.10;;;12.30;99.90;;;;;;5095355;28;20090;-76
2023/03/30 05:02:10;;;;;;;11.10;2.40;;;12.30;99.90;;;;;;5113131;28;20574;-73
2023/03/30 05:04:36;;;;;;;12.80;2.97;;;12.20;99.90;;;;;;5095476;28;20180;-74
2023/03/30 05:07:03;;;;;;;8.68;2.92;;;12.30;99.90;;;;;;5095882;28;20044;-74
2023/03/30 05:09:29;;;;;;;10.43;3.35;;;12.30;99.90;;;;;;5078886;28;20052;-76
2023/03/30 05:11:55;;;;;;;8.88;2.95;;;12.30;99.90;;;;;;5095713;28;20375;-75
2023/03/30 05:14:21;;;;;;;11.05;2.63;;;12.30;99.90;;;;;;5113416;28;20048;-74
2023/03/30 05:16:46;;;;;;;9.38;2.78;;;12.20;99.90;;;;;;5113316;28;20043;-76
2023/03/30 05:19:12;;;;;;;10.02;2.35;;;12.20;99.90;;;;;;5096177;28;20442;-74
2023/03/30 05:21:38;;;;;;;9.55;2.15;;;12.30;99.90;;;;;;5113275;28;20045;-75
2023/03/30 05:24:04;;;;;;;12.68;2.25;;;12.30;99.90;;;;;;5112872;28;20040;-75
2023/03/30 05:26:30;;;;;;;8.95;2.38;;;12.30;99.90;;;;;;5095368;28;20055;-76
2023/03/30 05:28:56;;;;;;;8.48;2.42;;;12.40;99.90;;;;;;5095051;28;20051;-75
2023/03/30 05:31:22;;;;;;;8.82;2.13;;;12.40;99.90;;;;;;5061508;28;20054;-75
2023/03/30 05:33:47;;;;;;;7.40;2.08;;;12.40;99.90;;;;;;5113280;28;20056;-75
2023/03/30 05:36:13;;;;;;;10.68;2.28;;;12.40;99.90;;;;;;5113812;28;20066;-75
2023/03/30 05:38:39;;;;;;;7.28;2.08;;;12.40;99.90;;;;;;5113976;28;20047;-77
2023/03/30 05:41:05;;;;;;;7.47;1.92;;;12.40;99.90;;;;;;5116852;28;20122;-79
2023/03/30 05:43:34;;;;;;;11.55;2.40;;;12.40;99.90;;;;;;5081985;28;20207;-76
2023/03/30 05:46:01;;;;;;;9.70;2.20;;;12.50;99.90;;;;;;5117561;28;20043;-76
2023/03/30 05:48:28;;;;;;;7.72;1.88;;;12.40;99.90;;;;;;5116724;28;20122;-75
2023/03/30 05:50:54;;;;;;;8.68;2.10;;;12.50;99.90;;;;;;5116511;28;20044;-75
2023/03/30 05:53:20;;;;;;;8.68;1.88;;;12.50;99.90;;;;;;5116652;28;20047;-76
2023/03/30 05:55:48;;;;;;;7.30;2.00;;;12.60;99.90;;;;;;5116731;28;20066;-75
2023/03/30 05:58:15;;;;;;;9.27;2.22;;;12.70;99.90;;;;;;5081549;28;20290;-79
2023/03/30 06:00:42;;;;;;;7.35;2.03;;;12.70;99.90;;;;;;5097843;28;20476;-77
2023/03/30 06:03:09;;;;;;;;;;;12.60;99.90;;;;;;5116835;28;20426;-76
2023/03/30 06:05:40;;;;;;;11.05;2.05;;;12.70;99.90;;;;;;5098729;28;19945;-74
2023/03/30 06:08:07;;;;;;;8.52;2.35;;;12.70;99.90;;;;;;5116680;28;20040;-75
2023/03/30 06:10:33;;;;;;;6.35;1.85;;;12.80;99.90;;;;;;5098234;28;20087;-73
2023/03/30 06:13:00;;;;;;;10.88;1.90;;;12.80;99.90;;;;;;5098709;28;20043;-75
2023/03/30 06:15:26;;;;;;;8.07;2.00;;;12.80;99.90;;;;;;5116448;28;20055;-76
2023/03/30 06:17:51;;;;;;;10.07;1.83;;;12.80;99.90;;;;;;5116925;28;20063;-76
2023/03/30 06:20:20;;;;;;;8.32;1.63;;;12.80;99.90;;;;;;5081103;28;20052;-75
2023/03/30 06:22:49;;;;;;;13.02;2.10;;;12.80;99.90;;;;;;5098111;28;20090;-74
2023/03/30 06:25:17;;;;;;;11.25;2.13;;;12.80;99.90;;;;;;5116443;28;20047;-76
2023/03/30 06:27:43;;;;;;;7.03;2.15;;;12.90;99.90;;;;;;5098256;28;20056;-76
2023/03/30 06:30:09;;;;;;;10.65;2.13;;;12.80;99.90;;;;;;5080949;28;20441;-78
2023/03/30 06:32:35;;;;;;;8.85;2.25;;;12.80;99.90;;;;;;5081243;28;20047;-75
2023/03/30 06:35:02;;;;;;;9.35;1.77;;;12.80;99.90;;;;;;5064234;28;20074;-77
2023/03/30 06:37:30;;;;;;;9.43;1.75;;;12.80;99.90;;;;;;5098086;28;20047;-76
2023/03/30 06:39:56;;;;;;;13.23;2.40;;;12.80;99.90;;;;;;5097597;28;20043;-76
2023/03/30 06:42:22;;;;;;;11.85;2.40;;;12.90;99.90;;;;;;5116352;28;20040;-75
2023/03/30 06:44:48;;;;;;;12.88;1.55;;;13.00;99.90;;;;;;5098082;28;20078;-76
2023/03/30 06:47:14;;;;;;;11.52;1.60;;;13.10;99.90;;;;;;5065460;28;20052;-75
2023/03/30 06:49:40;;;;;;;11.23;2.28;;;13.10;99.90;;;;;;5082201;28;20129;-76
2023/03/30 06:52:06;;;;;;;12.57;1.67;;;13.20;99.90;;;;;;5097674;28;20055;-75
2023/03/30 06:54:32;;;;;;;10.82;1.58;;;13.20;99.90;;;;;;5115928;28;20054;-78
2023/03/30 06:56:57;;;;;;;11.00;1.50;;;13.20;99.90;;;;;;5097840;28;20154;-75
2023/03/30 06:59:23;;;;;;;10.23;1.80;;;13.20;99.90;;;;;;5080878;28;20047;-77
2023/03/30 07:01:49;;;;;;;12.10;1.98;;;13.20;99.90;;;;;;5115620;28;20126;-77
2023/03/30 07:04:15;;;;;;;10.60;2.13;;;13.20;99.90;;;;;;5080577;28;20044;-74
2023/03/30 07:06:41;;;;;;;8.60;1.65;;;13.20;99.90;;;;;;5080670;28;20092;-75
2023/03/30 07:09:07;;;;;;;8.70;1.52;;;13.20;99.90;;;;;;5080769;28;20134;-76
2023/03/30 07:11:32;;;;;;;7.60;1.38;;;13.30;99.90;;;;;;5097239;28;20048;-74
2023/03/30 07:14:00;;;;;;;11.40;1.60;;;13.30;99.90;;;;;;5097851;28;20040;-77
2023/03/30 07:16:26;;;;;;;12.20;1.83;;;13.30;99.90;;;;;;5115351;28;20043;-75
2023/03/30 07:18:52;;;;;;;14.77;1.57;;;13.30;99.90;;;;;;5080744;28;20056;-75
2023/03/30 07:21:19;;;;;;;8.32;1.80;;;13.30;99.90;;;;;;5096908;28;20055;-77
2023/03/30 07:23:45;;;;;;;10.23;1.92;;;13.40;99.90;;;;;;5080423;28;20146;-74
2023/03/30 07:26:11;;;;;;;14.57;1.63;;;13.30;99.90;;;;;;5080483;28;20079;-76
2023/03/30 07:28:37;;;;;;;14.30;1.80;;;13.40;99.90;;;;;;5097253;28;20047;-76
2023/03/30 07:31:04;;;;;;;11.30;1.57;;;13.40;99.90;;;;;;5115405;28;20051;-75
2023/03/30 07:33:31;;;;;;;15.57;1.85;;;13.50;99.90;;;;;;5079907;28;20309;-75
2023/03/30 07:35:56;;;;;;;16.42;1.75;;;13.40;99.90;;;;;;5115649;28;20071;-77
2023/03/30 07:38:22;;;;;;;13.68;1.70;;;13.40;99.90;;;;;;5096838;28;20047;-77
2023/03/30 07:40:48;;;;;;;13.13;1.63;;;13.30;99.90;;;;;;5096660;28;20104;-76
2023/03/30 07:43:14;;;;;;;16.70;2.10;;;13.40;99.90;;;;;;5096869;28;20044;-76
2023/03/30 07:45:40;;;;;;;23.02;2.00;;;13.40;99.90;;;;;;5096436;28;20069;-76
2023/03/30 07:48:06;;;;;;;13.38;1.63;;;13.40;99.90;;;;;;5095964;28;20176;-75
2023/03/30 07:50:32;;;;;;;14.55;2.42;;;13.40;99.90;;;;;;5096225;28;20480;-74
2023/03/30 07:52:57;;;;;;;18.98;1.88;;;13.40;99.90;;;;;;5115267;28;20043;-76
2023/03/30 07:55:23;;;;;;;18.15;2.28;;;13.30;99.90;;;;;;5114414;28;20498;-75
2023/03/30 07:57:49;;;;;;;16.73;2.80;;;13.30;99.90;;;;;;5114292;28;20467;-75
2023/03/30 08:00:15;;;;;;;23.08;2.25;;;13.30;99.90;;;;;;5096089;28;20089;-77
2023/03/30 08:02:41;;;;;;;17.70;2.17;;;13.40;99.90;;;;;;5113340;28;20047;-76
2023/03/30 08:05:08;;;;;;;13.55;1.92;;;13.30;99.90;;;;;;5096119;28;20092;-78
2023/03/30 08:07:35;;;;;;;17.50;2.13;;;13.30;99.90;;;;;;5114207;28;20043;-76
2023/03/30 08:10:01;;;;;;;;;;;13.30;99.90;;;;;;5096338;28;20055;-74
2023/03/30 08:12:26;;;;;;;12.53;2.50;;;13.20;99.90;;;;;;5095768;28;19920;-75
2023/03/30 08:14:54;;;;;;;17.08;1.98;;;13.20;99.90;;;;;;5113848;28;20054;-75
2023/03/30 08:17:20;;;;;;;15.98;2.75;;;13.10;99.90;;;;;;5095862;28;20404;-74
2023/03/30 08:19:46;;;;;;;21.33;2.22;;;13.10;99.90;;;;;;5062239;28;20134;-75
2023/03/30 08:22:11;;;;;;;20.25;2.72;;;13.10;99.90;;;;;;5079519;28;20126;-79
2023/03/30 08:24:37;;;;;;;21.48;3.75;;;13.20;99.90;;;;;;5097066;28;20047;-80
2023/03/30 08:27:03;;;;;;;13.10;2.05;;;13.20;99.90;;;;;;5115421;28;20547;-76
2023/03/30 08:29:30;;;;;;;16.48;2.08;;;13.20;99.90;;;;;;5096126;28;20127;-78
2023/03/30 08:31:56;;;;;;;;;;;13.10;99.90;;;;;;5096589;28;20040;-78
2023/03/30 08:34:22;;;;;;;26.87;2.57;;;13.10;99.90;;;;;;5093942;28;19927;-78
2023/03/30 08:36:48;;;;;;;15.38;2.05;;;13.00;99.90;;;;;;5093296;28;20139;-81
2023/03/30 08:39:14;;;;;;;25.88;3.35;;;13.00;99.90;;;;;;5094166;28;20084;-77
2023/03/30 08:42:09;;;;;;;19.35;2.13;;;12.80;99.90;;;;;;5093880;28;20044;-79
2023/03/30 08:44:39;;;;;;;17.70;2.35;;;12.70;99.90;;;;;;5039673;28;20053;-79
2023/03/30 08:47:13;;;;;;;20.70;3.30;;;12.70;99.90;;;;;;5095378;28;20048;-77
2023/03/30 08:49:43;;;;;;;21.40;2.95;;;12.60;99.90;;;;;;5094160;28;20144;-78
2023/03/30 08:52:17;;;;;;;20.95;2.75;;;12.60;99.90;;;;;;5093142;28;20540;-79
2023/03/30 08:54:43;;;;;;;17.73;2.35;;;12.80;99.90;;;;;;5094174;28;20051;-79
2023/03/30 08:57:21;;;;;;;26.83;3.35;;;13.00;99.90;;;;;;5094719;28;20048;-77
2023/03/30 09:00:14;;;;;;;23.30;3.45;;;13.10;99.90;;;;;;5094154;28;20048;-79
2023/03/30 09:02:45;;;;;;;21.30;2.85;;;13.20;99.90;;;;;;5094000;28;20048;-79
2023/03/30 09:05:17;;;;;;;21.23;2.42;;;13.30;99.90;;;;;;5094571;28;20123;-77
2023/03/30 09:07:55;;;;;;;21.92;3.33;;;13.50;99.90;;;;;;5093438;28;20044;-79
2023/03/30 09:10:25;;;;;;;20.55;3.08;;;13.60;99.90;;;;;;5076446;28;20040;-79
2023/03/30 09:12:54;;;;;;;28.15;2.83;;;13.70;99.90;;;;;;5093348;28;20048;-80
2023/03/30 09:15:26;;;;;;;20.58;2.45;;;13.80;99.90;;;;;;5097586;28;20131;-78
2023/03/30 09:18:01;;;;;;;23.73;2.20;;;13.90;99.90;;;;;;5099090;28;20062;-77
2023/03/30 09:20:29;;;;;;;19.58;2.20;;;14.00;99.90;;;;;;5099294;28;20112;-81
2023/03/30 09:22:58;;;;;;;19.75;1.73;;;14.00;99.90;;;;;;5098668;28;20062;-78
2023/03/30 09:25:52;;;;;;;26.05;2.30;;;14.10;99.90;;;;;;5098358;28;20040;-79
2023/03/30 09:28:44;;;;;;;17.38;2.67;;;14.10;99.90;;;;;;5097619;28;20135;-78
2023/03/30 09:31:36;;;;;;;19.20;2.10;;;14.00;99.90;;;;;;5067783;28;20113;-78
2023/03/30 09:34:19;;;;;;;15.55;2.00;;;14.00;99.90;;;;;;5106315;28;20142;-79
2023/03/30 09:37:03;;;;;;;18.83;2.35;;;14.00;99.90;;;;;;5099086;28;20532;-76
2023/03/30 09:39:32;;;;;;;18.83;2.00;;;13.90;99.90;;;;;;5116863;28;20043;-78
2023/03/30 09:42:26;;;;;;;25.58;2.08;;;14.00;99.90;;;;;;5099705;28;20144;-75
2023/03/30 09:45:12;;;;;;;25.23;2.38;;;14.20;99.90;;;;;;5117160;28;20051;-77
2023/03/30 09:47:38;;;;;;;22.13;3.37;;;14.20;99.90;;;;;;5117389;28;20100;-79
2023/03/30 09:50:08;;;;;;;13.95;2.35;;;14.20;99.90;;;;;;5123423;28;20277;-78
2023/03/30 09:52:37;;;;;;;18.13;2.40;;;14.40;99.90;;;;;;5124447;28;20085;-78
2023/03/30 09:55:21;;;;;;;19.33;2.30;;;14.50;99.90;;;;;;5110156;28;20052;-77
2023/03/30 09:57:51;;;;;;;15.02;2.28;;;14.40;99.90;;;;;;5128697;28;20074;-77
2023/03/30 10:00:32;;;;;;;19.50;1.65;;;14.50;99.90;;;;;;5128332;28;20043;-77
2023/03/30 10:03:03;;;;;;;15.60;1.33;;;14.50;99.90;;;;;;5126083;28;20044;-80
2023/03/30 10:05:31;;;;;;;13.95;1.38;;;14.70;99.90;;;;;;5105191;28;20051;-79
2023/03/30 10:08:02;;;;;;;17.25;2.00;;;14.80;99.90;;;;;;5103667;28;20052;-78
2023/03/30 10:10:37;;;;;;;21.75;2.28;;;14.90;99.90;;;;;;5101419;28;20103;-79
2023/03/30 10:13:18;;;;;;;15.07;1.38;;;14.90;99.90;;;;;;5100172;28;20052;-79
2023/03/30 10:15:50;;;;;;;24.05;1.98;;;14.60;99.90;;;;;;5117071;28;20116;-78
2023/03/30 10:18:33;;;;;;;19.25;2.53;;;14.50;99.90;;;;;;5116606;28;20048;-78
2023/03/30 10:21:18;;;;;;;18.25;2.13;;;14.60;99.90;;;;;;5116957;28;20119;-77
2023/03/30 10:23:46;;;;;;;17.67;1.50;;;14.50;99.90;;;;;;5116991;28;20101;-79
2023/03/30 10:26:19;;;;;;;15.90;1.15;;;14.60;99.90;;;;;;5115056;28;20035;-77
2023/03/30 10:28:56;;;;;;;14.73;1.48;;;14.80;99.90;;;;;;5082152;28;20117;-81
2023/03/30 10:31:23;;;;;;;14.93;1.48;;;14.80;99.90;;;;;;5116086;28;20043;-79
2023/03/30 10:33:55;;;;;;;12.30;1.52;;;14.70;99.90;;;;;;5098265;28;20056;-76
2023/03/30 10:36:23;;;;;;;12.02;1.40;;;14.90;99.90;;;;;;5098009;28;20091;-79
2023/03/30 10:38:49;;;;;;;12.23;1.05;;;14.80;99.90;;;;;;5080813;28;20544;-79
2023/03/30 10:41:20;;;;;;;11.93;1.40;;;14.80;99.90;;;;;;5097723;28;20047;-77
2023/03/30 10:43:48;;;;;;;16.60;1.35;;;14.90;99.90;;;;;;5116261;28;20050;-78
2023/03/30 10:46:18;;;;;;;16.40;1.25;;;14.80;99.90;;;;;;5115963;28;20414;-78
2023/03/30 10:49:02;;;;;;;15.77;1.23;;;14.90;99.90;;;;;;5097459;28;20039;-79
2023/03/30 10:52:01;;;;;;;19.55;1.60;;;15.00;99.90;;;;;;5115292;28;20047;-79
2023/03/30 10:54:40;;;;;;;14.85;1.15;;;15.10;99.90;;;;;;5115781;28;20096;-79
2023/03/30 10:57:16;;;;;;;12.55;1.20;;;15.20;99.90;;;;;;5097996;28;20099;-76
2023/03/30 10:59:44;;;;;;;12.93;1.30;;;15.00;99.90;;;;;;5115477;28;20521;-75
2023/03/30 11:02:30;;;;;;;13.23;1.13;;;15.00;99.90;;;;;;5115683;28;20105;-78
2023/03/30 11:05:05;;;;;;;18.55;1.33;;;15.20;99.90;;;;;;5097568;28;20062;-78
2023/03/30 11:07:35;;;;;;;11.35;0.82;;;15.40;99.90;;;;;;5115343;28;20052;-78
2023/03/30 11:10:11;;;;;;;12.95;1.20;;;15.40;99.90;;;;;;5114926;28;20047;-79
2023/03/30 11:12:42;;;;;;;29.15;1.55;;;15.40;99.90;;;;;;5081201;28;20051;-76
2023/03/30 11:15:15;;;;;;;12.68;1.27;;;15.60;99.90;;;;;;5115387;28;20056;-80
2023/03/30 11:18:01;;;;;;;15.77;1.98;;;15.60;99.90;;;;;;5097989;28;20058;-76
2023/03/30 11:20:44;;;;;;;16.63;1.48;;;15.70;99.90;;;;;;5115643;28;20096;-77
2023/03/30 11:23:16;;;;;;;11.45;1.13;;;15.70;99.90;;;;;;5115634;28;20082;-77
2023/03/30 11:26:07;;;;;;;19.35;1.75;;;15.70;99.90;;;;;;5080915;28;20051;-76
2023/03/30 11:28:54;;;;;;;16.30;1.42;;;15.50;99.90;;;;;;5096888;28;20392;-75
2023/03/30 11:31:43;;;;;;;14.95;1.40;;;15.40;99.90;;;;;;5097088;28;20044;-80
2023/03/30 11:34:37;;;;;;;14.80;1.40;;;15.50;99.90;;;;;;5115434;28;20094;-77
2023/03/30 11:37:26;;;;;;;15.93;1.38;;;15.40;99.90;;;;;;5114560;28;20134;-76
2023/03/30 11:40:07;;;;;;;15.13;1.58;;;15.30;99.90;;;;;;5097351;28;20422;-76
2023/03/30 11:42:35;;;;;;;13.43;1.75;;;15.20;99.90;;;;;;5115439;28;20102;-76
2023/03/30 11:45:03;;;;;;;14.30;1.60;;;15.20;99.90;;;;;;5114295;28;20043;-76
2023/03/30 11:47:44;;;;;;;14.43;1.45;;;15.20;99.90;;;;;;5114500;28;20142;-77
2023/03/30 11:50:35;;;;;;;18.88;1.67;;;15.30;99.90;;;;;;5114769;28;20540;-76
2023/03/30 11:53:25;;;;;;;18.63;1.75;;;15.20;99.90;;;;;;5098798;28;20087;-78
2023/03/30 11:56:09;;;;;;;18.35;1.42;;;15.30;99.90;;;;;;5096070;28;20054;-75
2023/03/30 11:58:53;;;;;;;19.02;1.63;;;15.20;99.90;;;;;;5096629;28;20135;-77
2023/03/30 12:01:27;;;;;;;16.60;1.83;;;15.20;99.90;;;;;;5114361;28;20043;-77
2023/03/30 12:04:02;;;;;;;23.25;2.05;;;15.40;99.90;;;;;;5114481;28;20056;-77
2023/03/30 12:06:32;;;;;;;21.63;1.88;;;15.40;99.90;;;;;;5114186;28;20047;-78
2023/03/30 12:09:04;;;;;;;18.55;1.60;;;15.50;99.90;;;;;;5080176;28;20059;-78
2023/03/30 12:11:39;;;;;;;17.42;1.40;;;15.60;99.90;;;;;;5114087;28;20090;-76
2023/03/30 12:14:22;;;;;;;20.83;1.90;;;15.60;99.90;;;;;;5114222;28;20087;-78
2023/03/30 12:16:53;;;;;;;19.88;1.70;;;15.80;99.90;;;;;;5113709;28;20558;-78
2023/03/30 12:19:35;;;;;;;12.55;1.02;;;15.90;99.90;;;;;;5096270;28;20181;-78
2023/03/30 12:22:15;;;;;;;21.20;1.52;;;15.80;99.90;;;;;;5079388;28;20130;-74
2023/03/30 12:24:43;;;;;;;15.60;1.95;;;15.70;99.90;;;;;;5113739;28;20471;-77
2023/03/30 12:27:09;;;;;;;23.38;2.40;;;15.50;99.90;;;;;;5113979;28;20055;-78
2023/03/30 12:29:45;;;;;;;15.98;1.88;;;15.50;99.90;;;;;;5096230;28;20502;-77
2023/03/30 12:32:33;;;;;;;18.90;1.77;;;15.70;99.90;;;;;;5114752;28;20043;-78
2023/03/30 12:34:59;;;;;;;21.00;1.90;;;15.90;99.90;;;;;;5115351;28;20047;-77
2023/03/30 12:37:33;;;;;;;22.73;1.77;;;16.00;99.90;;;;;;5096015;28;20051;-77
2023/03/30 12:40:05;;;;;;;20.73;1.73;;;16.00;99.90;;;;;;5113859;28;20054;-77
2023/03/30 12:42:38;;;;;;;14.48;1.50;;;16.30;99.90;;;;;;5114234;28;20136;-77
2023/03/30 12:45:42;;;;;;;17.73;1.58;;;16.30;99.90;;;;;;5096640;28;20528;-77
2023/03/30 12:48:25;;;;;;;20.70;1.85;;;16.00;99.90;;;;;;5079616;28;20059;-77
2023/03/30 12:51:03;;;;;;;16.40;1.75;;;16.00;99.90;;;;;;5117762;28;20044;-81
2023/03/30 12:53:54;;;;;;;18.80;1.85;;;15.80;99.90;;;;;;5118849;28;20132;-77
2023/03/30 12:56:43;;;;;;;14.52;1.60;;;15.50;99.90;;;;;;5117874;28;20051;-76
2023/03/30 12:59:31;;;;;;;17.10;1.48;;;15.60;99.90;;;;;;5117685;28;20046;-76
2023/03/30 13:02:08;;;;;;;16.10;1.67;;;15.80;99.90;;;;;;5082941;28;20100;-76
2023/03/30 13:04:38;;;;;;;18.92;1.40;;;16.10;99.90;;;;;;5099896;28;20430;-77